METAR Data
IDs: Format: Raw Decoded Include TAF

Data at: 0744 UTC 18 Nov 2018

PAJN 180653Z 08008KT 10SM FEW006 SCT014 OVC030 08/07 A2998 RMK AO2 SLP152 T00780067 $
PAJN 180605Z 09008KT 10SM FEW006 BKN030 OVC040 08/07 A2997 RMK AO2 T00780067 $
PAJN 180553Z 07009KT 10SM FEW006 SCT012 OVC029 07/07 A2997 RMK AO2 SLP149 60001 T00720067 10078 20072 51007 $
PAJN 180453Z 08010KT 10SM FEW007 BKN029 OVC032 08/07 A2997 RMK AO2 SLP147 T00780067 $
PAJN 180429Z 08009KT 10SM FEW007 BKN029 OVC032 08/07 A2996 RMK AO2 T00780067 $
PAJN 180353Z 08009KT 10SM FEW007 SCT025 OVC031 07/07 A2996 RMK AO2 SLP146 T00720067 $
PAJN 180253Z 08013KT 10SM FEW009 SCT025 OVC035 07/07 A2995 RMK AO2 RAE49 SLP142 P0000 60001 T00720067 50008 $
PAJN 180230Z 08011KT 10SM -RA FEW009 SCT025 OVC030 07/07 A2995 RMK AO2 PCPN VRY LGT P0000 T00720067 $
PAJN 180153Z 09010KT 10SM -RA FEW009 OVC028 07/07 A2995 RMK AO2 SLP143 PCPN VRY LGT P0000 T00720067 $
PAJN 180053Z 10014KT 9SM -RA FEW009 BKN030 OVC035 07/07 A2994 RMK AO2 SLP137 VIS LWR N PCPN VRY LGT P0001 T00720067 $
PAJN 172353Z 10013KT 3SM -RA BR FEW007 BKN030 OVC035 07/07 A2993 RMK AO2 SFC VIS 6 SLP135 P0003 60059 T00720067 10072 20067 58003 $
PAJN 172309Z 10014KT 3SM -RA BR FEW007 BKN030 OVC037 07/07 A2993 RMK AO2 P0001 T00720067 $
PAJN 172303Z 10015KT 2 1/2SM -RA BR FEW007 BKN030 OVC037 07/07 A2993 RMK AO2 TWR VIS 3 P0000 T00720067 $
PAJN 172253Z 11017KT 2SM -RA BR FEW006 BKN027 OVC034 07/07 A2993 RMK AO2 SLP135 P0005 T00720067 $
PAJN 172250Z 11015G21KT 2SM -RA BR FEW006 BKN027 OVC034 07/07 A2994 RMK AO2 P0005 $
PAJN 172153Z 12017G26KT 3SM -RA BR FEW008 SCT020 OVC026 07/06 A2994 RMK AO2 PK WND 11027/2105 SLP137 P0003 T00720061 $
PAJN 172053Z 12017G25KT 5SM -RA BR FEW008 BKN020 OVC027 07/06 A2995 RMK AO2 SLP141 P0008 60048 T00720061 58016 $
PAJN 171953Z 11017G26KT 6SM -RA BR FEW008 BKN028 OVC046 07/06 A2997 RMK AO2 PK WND 12031/1933 SLP148 P0012 T00720056 $
PAJN 171904Z 10018G25KT 5SM RA BR FEW006 BKN025 OVC033 07/06 A2998 RMK AO2 P0002 T00670056 $
PAJN 171853Z 11019G24KT 6SM RA BR FEW006 BKN031 OVC049 07/06 A2999 RMK AO2 PK WND 10030/1807 SLP154 P0028 T00670056 $
PAJN 171820Z 12015G24KT 6SM RA BR FEW006 BKN031 OVC049 07/06 A2999 RMK AO2 PK WND 10030/1807 P0011 T00670056 $
PAJN 171753Z 11021G27KT 6SM +RA BR FEW008 BKN029 OVC035 07/05 A2999 RMK AO2 PK WND 11028/1657 SLP156 P0022 60034 T00670050 10067 20039 56022 $
PAJN 171653Z 12020G29KT 8SM -RA FEW008 BKN024 OVC029 06/05 A3000 RMK AO2 PK WND 12030/1621 SLP159 P0000 T00610050
PAJN 171553Z 10019KT 10SM -RA FEW008 BKN025 OVC033 05/04 A3002 RMK AO2 PK WND 13027/1520 SLP166 P0001 T00500044
PAJN 171453Z 12018KT 9SM -RA FEW006 BKN025 OVC034 04/04 A3006 RMK AO2 PK WND 12028/1424 SLP178 PCPN VRY LGT P0001 60011 T00440039 58015
PAJN 171353Z 11017KT 9SM -RA FEW006 BKN027 OVC042 04/03 A3009 RMK AO2 PK WND 12026/1322 SLP188 P0003 T00440033
PAJN 171347Z 11015G25KT 10SM -RA FEW006 BKN027 OVC042 04/03 A3008 RMK AO2 PK WND 12026/1322 P0003
PAJN 171253Z 10018KT 7SM -RA FEW003 BKN030 OVC043 04/03 A3010 RMK AO2 SLP193 P0007 T00390033
PAJN 171153Z 11015KT 5SM -RA FEW003 SCT034 OVC045 04/03 A3013 RMK AO2 SLP202 P0008 60029 70029 T00390033 10039 20006 58028
PAJN 171053Z 10016KT 5SM -RA FEW003 BKN038 OVC045 04/03 A3016 RMK AO2 SNE53 SLP214 P0007 T00390028
PAJN 170953Z 09009KT 6SM -RASN FEW003 BKN034 OVC046 03/03 A3019 RMK AO2 SLP222 P0007 T00330028
PAJN 170853Z 11016KT 7SM -RASN FEW002 BKN035 OVC055 03/02 A3021 RMK AO2 SLP231 P0003 60007 T00280022 400331022 57023
PAJN 170753Z 10005KT 7SM -RASN FEW002 BKN040 OVC050 02/02 A3023 RMK AO2 SLP237 P0004 T00220017
PAJN 170653Z 05006KT 8SM -RASN FEW003 SCT038 OVC055 01/01 A3026 RMK AO2 SLP248 RAB11SNB15 P0000 T00110006
PAJN 170553Z 00000KT 10SM FEW002 BKN060 OVC070 01/01 A3028 RMK AO2 SLP254 FEW V SCT T00110006 10011 20006 56015
PAJN 170453Z 00000KT 10SM FEW002 SCT060 OVC075 01/01 A3030 RMK AO2 SLP259 T00060006
PAJN 170353Z 00000KT 10SM SCT002 BKN085 OVC120 01/01 A3031 RMK AO2 SLP263 T00060006
PAJN 170253Z 00000KT 10SM SCT003 BKN085 OVC130 01/01 A3033 RMK AO2 SLP269 T00060006 58017
PAJN 170153Z 00000KT 10SM SCT003 OVC120 01/01 A3035 RMK AO2 SLP276 BINOVC T00110006
PAJN 170124Z 00000KT 10SM FEW002 BKN110 OVC150 01/01 A3035 RMK AO2 T00110006
PAJN 170053Z COR 00000KT 10SM FEW002 BKN110 OVC160 01/01 A3036 RMK AO2 SLP279 T00060006
PAJN 162353Z 00000KT 10SM BKN140 OVC200 01/01 A3037 RMK AO2 SLP285 T00110011 10022 21017 58013
PAJN 162253Z 00000KT 10SM SCT120 OVC200 02/00 A3039 RMK AO2 SLP290 T00170000
PAJN 162153Z 00000KT 10SM FEW130 OVC200 02/00 A3040 RMK AO2 SLP294 T00170000 $
PAJN 162053Z 00000KT 10SM SCT130 OVC180 01/00 A3041 RMK AO2 SLP298 T00110000 58003
PAJN 161953Z 00000KT 10SM FEW130 BKN180 00/M01 A3042 RMK AO2 SLP300 T00001006